sensor_id;sensor_type;location;lat;lon;timestamp;P1;durP1;ratioP1;P2;durP2;ratioP2
4889;SDS011;2459;42.268;23.112;2023-03-21T00:00:46;57.80;;;21.60;;
4889;SDS011;2459;42.268;23.112;2023-03-21T00:03:13;54.97;;;19.13;;
4889;SDS011;2459;42.268;23.112;2023-03-21T00:05:40;109.53;;;32.07;;
4889;SDS011;2459;42.268;23.112;2023-03-21T00:08:07;43.13;;;17.87;;
4889;SDS011;2459;42.268;23.112;2023-03-21T00:10:33;33.03;;;15.20;;
4889;SDS011;2459;42.268;23.112;2023-03-21T00:13:00;49.37;;;16.93;;
4889;SDS011;2459;42.268;23.112;2023-03-21T00:15:27;48.23;;;17.77;;
4889;SDS011;2459;42.268;23.112;2023-03-21T00:17:55;45.97;;;17.30;;
4889;SDS011;2459;42.268;23.112;2023-03-21T00:20:27;38.80;;;17.07;;
4889;SDS011;2459;42.268;23.112;2023-03-21T00:22:53;35.20;;;14.70;;
4889;SDS011;2459;42.268;23.112;2023-03-21T00:25:20;42.03;;;14.97;;
4889;SDS011;2459;42.268;23.112;2023-03-21T00:27:46;37.27;;;16.30;;
4889;SDS011;2459;42.268;23.112;2023-03-21T00:30:13;53.97;;;19.73;;
4889;SDS011;2459;42.268;23.112;2023-03-21T00:32:40;71.27;;;23.00;;
4889;SDS011;2459;42.268;23.112;2023-03-21T00:35:08;86.77;;;27.50;;
4889;SDS011;2459;42.268;23.112;2023-03-21T00:37:35;64.53;;;20.87;;
4889;SDS011;2459;42.268;23.112;2023-03-21T00:40:01;44.60;;;15.77;;
4889;SDS011;2459;42.268;23.112;2023-03-21T00:42:33;89.03;;;25.60;;
4889;SDS011;2459;42.268;23.112;2023-03-21T00:44:59;47.23;;;16.33;;
4889;SDS011;2459;42.268;23.112;2023-03-21T00:47:26;38.20;;;15.00;;
4889;SDS011;2459;42.268;23.112;2023-03-21T00:49:52;51.03;;;20.00;;
4889;SDS011;2459;42.268;23.112;2023-03-21T00:52:21;99.77;;;29.13;;
4889;SDS011;2459;42.268;23.112;2023-03-21T00:54:47;58.00;;;19.80;;
4889;SDS011;2459;42.268;23.112;2023-03-21T00:57:14;40.73;;;16.10;;
4889;SDS011;2459;42.268;23.112;2023-03-21T00:59:40;67.70;;;18.30;;
4889;SDS011;2459;42.268;23.112;2023-03-21T01:02:07;79.70;;;21.87;;
4889;SDS011;2459;42.268;23.112;2023-03-21T01:04:38;80.07;;;22.73;;
4889;SDS011;2459;42.268;23.112;2023-03-21T01:07:05;69.33;;;22.33;;
4889;SDS011;2459;42.268;23.112;2023-03-21T01:09:33;73.57;;;22.60;;
4889;SDS011;2459;42.268;23.112;2023-03-21T01:11:59;54.27;;;20.37;;
4889;SDS011;2459;42.268;23.112;2023-03-21T01:14:26;30.17;;;12.40;;
4889;SDS011;2459;42.268;23.112;2023-03-21T01:16:52;31.33;;;13.20;;
4889;SDS011;2459;42.268;23.112;2023-03-21T01:19:20;28.73;;;11.73;;
4889;SDS011;2459;42.268;23.112;2023-03-21T01:21:47;31.80;;;12.57;;
4889;SDS011;2459;42.268;23.112;2023-03-21T01:24:13;32.70;;;12.33;;
4889;SDS011;2459;42.268;23.112;2023-03-21T01:26:41;36.60;;;12.97;;
4889;SDS011;2459;42.268;23.112;2023-03-21T01:29:08;27.30;;;12.50;;
4889;SDS011;2459;42.268;23.112;2023-03-21T01:31:35;25.70;;;10.73;;
4889;SDS011;2459;42.268;23.112;2023-03-21T01:34:02;30.43;;;12.87;;
4889;SDS011;2459;42.268;23.112;2023-03-21T01:36:28;28.20;;;12.20;;
4889;SDS011;2459;42.268;23.112;2023-03-21T01:38:55;145.63;;;44.00;;
4889;SDS011;2459;42.268;23.112;2023-03-21T01:41:23;51.60;;;20.93;;
4889;SDS011;2459;42.268;23.112;2023-03-21T01:43:52;28.73;;;12.70;;
4889;SDS011;2459;42.268;23.112;2023-03-21T01:46:25;27.40;;;11.10;;
4889;SDS011;2459;42.268;23.112;2023-03-21T01:48:53;24.93;;;10.63;;
4889;SDS011;2459;42.268;23.112;2023-03-21T01:51:22;21.40;;;10.23;;
4889;SDS011;2459;42.268;23.112;2023-03-21T01:53:49;18.73;;;8.60;;
4889;SDS011;2459;42.268;23.112;2023-03-21T01:56:17;24.40;;;10.00;;
4889;SDS011;2459;42.268;23.112;2023-03-21T01:58:44;46.60;;;15.47;;
4889;SDS011;2459;42.268;23.112;2023-03-21T02:01:13;82.70;;;26.50;;
4889;SDS011;2459;42.268;23.112;2023-03-21T02:03:41;204.97;;;53.90;;
4889;SDS011;2459;42.268;23.112;2023-03-21T02:06:15;48.33;;;17.40;;
4889;SDS011;2459;42.268;23.112;2023-03-21T02:08:43;30.30;;;13.23;;
4889;SDS011;2459;42.268;23.112;2023-03-21T02:11:09;39.13;;;14.53;;
4889;SDS011;2459;42.268;23.112;2023-03-21T02:13:36;22.53;;;9.67;;
4889;SDS011;2459;42.268;23.112;2023-03-21T02:16:05;34.63;;;11.70;;
4889;SDS011;2459;42.268;23.112;2023-03-21T02:18:37;39.03;;;11.00;;
4889;SDS011;2459;42.268;23.112;2023-03-21T02:29:24;119.70;;;32.37;;
4889;SDS011;2459;42.268;23.112;2023-03-21T02:31:57;36.90;;;12.90;;
4889;SDS011;2459;42.268;23.112;2023-03-21T02:37:20;73.20;;;20.63;;
4889;SDS011;2459;42.268;23.112;2023-03-21T02:39:52;41.90;;;13.90;;
4889;SDS011;2459;42.268;23.112;2023-03-21T02:42:21;27.40;;;12.20;;
4889;SDS011;2459;42.268;23.112;2023-03-21T02:44:53;29.23;;;11.00;;
4889;SDS011;2459;42.268;23.112;2023-03-21T02:47:24;18.03;;;9.30;;
4889;SDS011;2459;42.268;23.112;2023-03-21T02:49:54;28.27;;;12.43;;
4889;SDS011;2459;42.268;23.112;2023-03-21T02:52:23;84.87;;;22.40;;
4889;SDS011;2459;42.268;23.112;2023-03-21T02:54:51;28.70;;;12.63;;
4889;SDS011;2459;42.268;23.112;2023-03-21T02:57:18;31.13;;;11.93;;
4889;SDS011;2459;42.268;23.112;2023-03-21T02:59:45;24.00;;;10.47;;
4889;SDS011;2459;42.268;23.112;2023-03-21T03:02:14;22.83;;;12.37;;
4889;SDS011;2459;42.268;23.112;2023-03-21T03:04:40;22.23;;;12.53;;
4889;SDS011;2459;42.268;23.112;2023-03-21T03:07:22;75.37;;;25.47;;
4889;SDS011;2459;42.268;23.112;2023-03-21T03:12:33;21.63;;;9.23;;
4889;SDS011;2459;42.268;23.112;2023-03-21T03:15:02;32.23;;;11.40;;
4889;SDS011;2459;42.268;23.112;2023-03-21T03:17:38;30.10;;;10.20;;
4889;SDS011;2459;42.268;23.112;2023-03-21T03:20:12;20.83;;;9.37;;
4889;SDS011;2459;42.268;23.112;2023-03-21T03:22:43;20.83;;;9.37;;
4889;SDS011;2459;42.268;23.112;2023-03-21T03:25:11;47.70;;;12.53;;
4889;SDS011;2459;42.268;23.112;2023-03-21T03:27:40;30.90;;;12.60;;
4889;SDS011;2459;42.268;23.112;2023-03-21T03:30:08;16.90;;;8.27;;
4889;SDS011;2459;42.268;23.112;2023-03-21T03:32:36;17.80;;;7.73;;
4889;SDS011;2459;42.268;23.112;2023-03-21T03:35:09;22.93;;;9.00;;
4889;SDS011;2459;42.268;23.112;2023-03-21T03:37:36;17.70;;;9.33;;
4889;SDS011;2459;42.268;23.112;2023-03-21T03:40:04;21.57;;;9.07;;
4889;SDS011;2459;42.268;23.112;2023-03-21T03:42:33;18.23;;;10.67;;
4889;SDS011;2459;42.268;23.112;2023-03-21T03:45:01;29.87;;;11.97;;
4889;SDS011;2459;42.268;23.112;2023-03-21T03:47:30;29.30;;;11.17;;
4889;SDS011;2459;42.268;23.112;2023-03-21T03:50:00;22.83;;;11.23;;
4889;SDS011;2459;42.268;23.112;2023-03-21T03:52:28;27.50;;;11.50;;
4889;SDS011;2459;42.268;23.112;2023-03-21T03:54:56;18.73;;;10.33;;
4889;SDS011;2459;42.268;23.112;2023-03-21T03:57:23;18.50;;;9.87;;
4889;SDS011;2459;42.268;23.112;2023-03-21T03:59:50;27.70;;;11.90;;
4889;SDS011;2459;42.268;23.112;2023-03-21T04:02:18;33.50;;;12.77;;
4889;SDS011;2459;42.268;23.112;2023-03-21T04:04:45;31.77;;;11.93;;
4889;SDS011;2459;42.268;23.112;2023-03-21T04:07:12;25.57;;;12.73;;
4889;SDS011;2459;42.268;23.112;2023-03-21T04:09:39;36.77;;;13.77;;
4889;SDS011;2459;42.268;23.112;2023-03-21T04:12:06;29.07;;;12.90;;
4889;SDS011;2459;42.268;23.112;2023-03-21T04:14:33;34.03;;;11.97;;
4889;SDS011;2459;42.268;23.112;2023-03-21T04:16:59;27.07;;;12.60;;
4889;SDS011;2459;42.268;23.112;2023-03-21T04:19:27;37.13;;;13.43;;
4889;SDS011;2459;42.268;23.112;2023-03-21T04:21:54;21.20;;;11.03;;
4889;SDS011;2459;42.268;23.112;2023-03-21T04:24:20;39.23;;;11.07;;
4889;SDS011;2459;42.268;23.112;2023-03-21T04:26:47;17.10;;;9.93;;
4889;SDS011;2459;42.268;23.112;2023-03-21T04:29:13;24.10;;;12.13;;
4889;SDS011;2459;42.268;23.112;2023-03-21T04:31:40;25.10;;;12.90;;
4889;SDS011;2459;42.268;23.112;2023-03-21T04:34:06;24.17;;;13.03;;
4889;SDS011;2459;42.268;23.112;2023-03-21T04:36:35;38.57;;;13.50;;
4889;SDS011;2459;42.268;23.112;2023-03-21T04:39:07;26.50;;;12.90;;
4889;SDS011;2459;42.268;23.112;2023-03-21T04:41:36;22.10;;;11.73;;
4889;SDS011;2459;42.268;23.112;2023-03-21T04:44:02;24.53;;;13.37;;
4889;SDS011;2459;42.268;23.112;2023-03-21T04:46:29;25.00;;;12.23;;
4889;SDS011;2459;42.268;23.112;2023-03-21T04:48:55;39.57;;;17.67;;
4889;SDS011;2459;42.268;23.112;2023-03-21T04:51:22;23.67;;;12.53;;
4889;SDS011;2459;42.268;23.112;2023-03-21T04:53:50;37.63;;;17.67;;
4889;SDS011;2459;42.268;23.112;2023-03-21T04:56:21;23.43;;;12.33;;
4889;SDS011;2459;42.268;23.112;2023-03-21T04:58:50;45.33;;;12.47;;
4889;SDS011;2459;42.268;23.112;2023-03-21T05:01:16;48.57;;;20.93;;
4889;SDS011;2459;42.268;23.112;2023-03-21T05:03:45;30.53;;;15.60;;
4889;SDS011;2459;42.268;23.112;2023-03-21T05:06:11;42.67;;;13.13;;
4889;SDS011;2459;42.268;23.112;2023-03-21T05:08:37;33.10;;;13.93;;
4889;SDS011;2459;42.268;23.112;2023-03-21T05:11:06;26.93;;;11.30;;
4889;SDS011;2459;42.268;23.112;2023-03-21T05:13:33;28.93;;;12.53;;
4889;SDS011;2459;42.268;23.112;2023-03-21T05:15:59;40.10;;;12.97;;
4889;SDS011;2459;42.268;23.112;2023-03-21T05:18:26;31.63;;;13.50;;
4889;SDS011;2459;42.268;23.112;2023-03-21T05:20:54;54.20;;;14.40;;
4889;SDS011;2459;42.268;23.112;2023-03-21T05:23:22;54.47;;;15.63;;
4889;SDS011;2459;42.268;23.112;2023-03-21T05:25:49;39.70;;;15.00;;
4889;SDS011;2459;42.268;23.112;2023-03-21T05:28:17;45.00;;;17.57;;
4889;SDS011;2459;42.268;23.112;2023-03-21T05:30:43;39.43;;;14.83;;
4889;SDS011;2459;42.268;23.112;2023-03-21T05:33:10;37.80;;;14.50;;
4889;SDS011;2459;42.268;23.112;2023-03-21T05:35:37;26.00;;;13.37;;
4889;SDS011;2459;42.268;23.112;2023-03-21T05:38:03;27.93;;;13.60;;
4889;SDS011;2459;42.268;23.112;2023-03-21T05:40:30;35.63;;;15.20;;
4889;SDS011;2459;42.268;23.112;2023-03-21T05:42:56;33.03;;;14.47;;
4889;SDS011;2459;42.268;23.112;2023-03-21T05:45:24;30.53;;;13.93;;
4889;SDS011;2459;42.268;23.112;2023-03-21T05:47:51;27.57;;;11.77;;
4889;SDS011;2459;42.268;23.112;2023-03-21T05:50:18;31.30;;;14.80;;
4889;SDS011;2459;42.268;23.112;2023-03-21T05:52:44;26.20;;;12.83;;
4889;SDS011;2459;42.268;23.112;2023-03-21T05:55:11;25.33;;;12.10;;
4889;SDS011;2459;42.268;23.112;2023-03-21T05:57:37;23.40;;;10.93;;
4889;SDS011;2459;42.268;23.112;2023-03-21T06:00:05;71.43;;;17.20;;
4889;SDS011;2459;42.268;23.112;2023-03-21T06:02:34;35.17;;;19.03;;
4889;SDS011;2459;42.268;23.112;2023-03-21T06:05:01;43.67;;;17.33;;
4889;SDS011;2459;42.268;23.112;2023-03-21T06:07:28;32.17;;;15.00;;
4889;SDS011;2459;42.268;23.112;2023-03-21T06:09:54;42.77;;;14.47;;
4889;SDS011;2459;42.268;23.112;2023-03-21T06:12:21;45.80;;;16.13;;
4889;SDS011;2459;42.268;23.112;2023-03-21T06:14:47;43.20;;;14.13;;
4889;SDS011;2459;42.268;23.112;2023-03-21T06:17:14;28.30;;;13.03;;
4889;SDS011;2459;42.268;23.112;2023-03-21T06:19:42;38.60;;;12.87;;
4889;SDS011;2459;42.268;23.112;2023-03-21T06:22:08;26.87;;;10.53;;
4889;SDS011;2459;42.268;23.112;2023-03-21T06:24:35;44.33;;;14.90;;
4889;SDS011;2459;42.268;23.112;2023-03-21T06:27:01;26.13;;;12.07;;
4889;SDS011;2459;42.268;23.112;2023-03-21T06:29:28;27.57;;;13.63;;
4889;SDS011;2459;42.268;23.112;2023-03-21T06:31:56;36.33;;;15.03;;
4889;SDS011;2459;42.268;23.112;2023-03-21T06:34:23;45.33;;;15.70;;
4889;SDS011;2459;42.268;23.112;2023-03-21T06:36:52;43.57;;;14.20;;
4889;SDS011;2459;42.268;23.112;2023-03-21T06:39:19;24.90;;;12.27;;
4889;SDS011;2459;42.268;23.112;2023-03-21T06:41:45;33.47;;;12.27;;
4889;SDS011;2459;42.268;23.112;2023-03-21T06:44:12;32.50;;;14.93;;
4889;SDS011;2459;42.268;23.112;2023-03-21T06:46:38;35.77;;;12.60;;
4889;SDS011;2459;42.268;23.112;2023-03-21T06:49:05;26.33;;;11.87;;
4889;SDS011;2459;42.268;23.112;2023-03-21T06:51:31;39.07;;;17.57;;
4889;SDS011;2459;42.268;23.112;2023-03-21T06:53:59;36.93;;;14.50;;
4889;SDS011;2459;42.268;23.112;2023-03-21T06:56:26;34.40;;;11.83;;
4889;SDS011;2459;42.268;23.112;2023-03-21T06:58:52;41.07;;;19.27;;
4889;SDS011;2459;42.268;23.112;2023-03-21T07:01:19;32.40;;;12.10;;
4889;SDS011;2459;42.268;23.112;2023-03-21T07:03:46;27.10;;;13.00;;
4889;SDS011;2459;42.268;23.112;2023-03-21T07:06:12;27.50;;;14.20;;
4889;SDS011;2459;42.268;23.112;2023-03-21T07:08:40;31.77;;;13.10;;
4889;SDS011;2459;42.268;23.112;2023-03-21T07:11:08;30.53;;;12.80;;
4889;SDS011;2459;42.268;23.112;2023-03-21T07:13:35;22.73;;;9.90;;
4889;SDS011;2459;42.268;23.112;2023-03-21T07:16:02;43.30;;;14.30;;
4889;SDS011;2459;42.268;23.112;2023-03-21T07:18:28;40.03;;;14.93;;
4889;SDS011;2459;42.268;23.112;2023-03-21T07:20:55;33.47;;;12.40;;
4889;SDS011;2459;42.268;23.112;2023-03-21T07:23:23;27.80;;;11.33;;
4889;SDS011;2459;42.268;23.112;2023-03-21T07:25:50;42.97;;;11.63;;
4889;SDS011;2459;42.268;23.112;2023-03-21T07:28:19;28.43;;;13.13;;
4889;SDS011;2459;42.268;23.112;2023-03-21T07:30:52;42.73;;;15.67;;
4889;SDS011;2459;42.268;23.112;2023-03-21T07:33:19;38.80;;;15.53;;
4889;SDS011;2459;42.268;23.112;2023-03-21T07:35:47;47.20;;;18.23;;
4889;SDS011;2459;42.268;23.112;2023-03-21T07:38:13;44.50;;;18.77;;
4889;SDS011;2459;42.268;23.112;2023-03-21T07:40:42;33.63;;;15.83;;
4889;SDS011;2459;42.268;23.112;2023-03-21T07:43:09;45.63;;;16.40;;
4889;SDS011;2459;42.268;23.112;2023-03-21T07:45:37;37.30;;;15.87;;
4889;SDS011;2459;42.268;23.112;2023-03-21T07:48:04;34.17;;;16.30;;
4889;SDS011;2459;42.268;23.112;2023-03-21T07:50:30;48.07;;;16.20;;
4889;SDS011;2459;42.268;23.112;2023-03-21T07:52:57;31.43;;;13.30;;
4889;SDS011;2459;42.268;23.112;2023-03-21T07:55:23;35.60;;;15.20;;
4889;SDS011;2459;42.268;23.112;2023-03-21T07:57:50;36.87;;;13.87;;
4889;SDS011;2459;42.268;23.112;2023-03-21T08:00:17;57.10;;;22.33;;
4889;SDS011;2459;42.268;23.112;2023-03-21T08:02:48;40.07;;;14.47;;
4889;SDS011;2459;42.268;23.112;2023-03-21T08:05:18;35.03;;;14.80;;
4889;SDS011;2459;42.268;23.112;2023-03-21T08:07:45;39.87;;;16.83;;
4889;SDS011;2459;42.268;23.112;2023-03-21T08:10:11;70.13;;;16.20;;
4889;SDS011;2459;42.268;23.112;2023-03-21T08:12:38;53.50;;;18.30;;
4889;SDS011;2459;42.268;23.112;2023-03-21T08:15:05;39.17;;;13.20;;
4889;SDS011;2459;42.268;23.112;2023-03-21T08:17:32;35.53;;;12.80;;
4889;SDS011;2459;42.268;23.112;2023-03-21T08:20:01;35.10;;;12.00;;
4889;SDS011;2459;42.268;23.112;2023-03-21T08:22:32;30.50;;;12.87;;
4889;SDS011;2459;42.268;23.112;2023-03-21T08:24:58;33.00;;;13.50;;
4889;SDS011;2459;42.268;23.112;2023-03-21T08:27:25;28.40;;;10.63;;
4889;SDS011;2459;42.268;23.112;2023-03-21T08:29:51;31.40;;;11.03;;
4889;SDS011;2459;42.268;23.112;2023-03-21T08:32:18;30.57;;;12.93;;
4889;SDS011;2459;42.268;23.112;2023-03-21T08:34:44;28.30;;;10.90;;
4889;SDS011;2459;42.268;23.112;2023-03-21T08:37:12;19.37;;;10.03;;
4889;SDS011;2459;42.268;23.112;2023-03-21T08:39:38;20.13;;;9.67;;
4889;SDS011;2459;42.268;23.112;2023-03-21T08:42:05;20.57;;;11.70;;
4889;SDS011;2459;42.268;23.112;2023-03-21T08:44:32;18.17;;;8.30;;
4889;SDS011;2459;42.268;23.112;2023-03-21T08:46:58;20.33;;;9.63;;
4889;SDS011;2459;42.268;23.112;2023-03-21T08:49:25;29.30;;;9.83;;
4889;SDS011;2459;42.268;23.112;2023-03-21T08:51:54;32.10;;;9.80;;
4889;SDS011;2459;42.268;23.112;2023-03-21T08:54:22;18.53;;;10.10;;
4889;SDS011;2459;42.268;23.112;2023-03-21T08:56:48;28.00;;;10.33;;
4889;SDS011;2459;42.268;23.112;2023-03-21T08:59:15;21.37;;;9.07;;
4889;SDS011;2459;42.268;23.112;2023-03-21T09:01:41;37.37;;;12.10;;
4889;SDS011;2459;42.268;23.112;2023-03-21T09:04:08;26.03;;;9.57;;
4889;SDS011;2459;42.268;23.112;2023-03-21T09:06:35;26.60;;;9.47;;
4889;SDS011;2459;42.268;23.112;2023-03-21T09:09:01;25.70;;;10.63;;
4889;SDS011;2459;42.268;23.112;2023-03-21T09:11:31;29.93;;;8.07;;
4889;SDS011;2459;42.268;23.112;2023-03-21T09:13:57;36.65;;;9.23;;
4889;SDS011;2459;42.268;23.112;2023-03-21T09:16:24;35.42;;;10.38;;
4889;SDS011;2459;42.268;23.112;2023-03-21T09:18:50;27.77;;;9.43;;
4889;SDS011;2459;42.268;23.112;2023-03-21T09:21:20;25.70;;;9.20;;
4889;SDS011;2459;42.268;23.112;2023-03-21T09:23:47;22.17;;;8.30;;
4889;SDS011;2459;42.268;23.112;2023-03-21T09:26:16;36.37;;;11.63;;
4889;SDS011;2459;42.268;23.112;2023-03-21T09:28:44;34.03;;;11.50;;
4889;SDS011;2459;42.268;23.112;2023-03-21T09:31:11;30.57;;;10.30;;
4889;SDS011;2459;42.268;23.112;2023-03-21T09:33:40;29.63;;;9.10;;
4889;SDS011;2459;42.268;23.112;2023-03-21T09:36:08;27.63;;;9.70;;
4889;SDS011;2459;42.268;23.112;2023-03-21T09:38:38;17.10;;;8.70;;
4889;SDS011;2459;42.268;23.112;2023-03-21T09:41:08;32.57;;;9.03;;
4889;SDS011;2459;42.268;23.112;2023-03-21T09:43:40;31.63;;;10.90;;
4889;SDS011;2459;42.268;23.112;2023-03-21T09:46:16;37.15;;;11.35;;
4889;SDS011;2459;42.268;23.112;2023-03-21T09:48:45;18.02;;;6.50;;
4889;SDS011;2459;42.268;23.112;2023-03-21T09:51:14;19.25;;;7.82;;
4889;SDS011;2459;42.268;23.112;2023-03-21T09:53:43;16.17;;;6.60;;
4889;SDS011;2459;42.268;23.112;2023-03-21T09:56:12;13.63;;;7.10;;
4889;SDS011;2459;42.268;23.112;2023-03-21T09:58:40;15.00;;;6.18;;
4889;SDS011;2459;42.268;23.112;2023-03-21T10:01:08;18.05;;;7.75;;
4889;SDS011;2459;42.268;23.112;2023-03-21T10:03:48;22.70;;;7.95;;
4889;SDS011;2459;42.268;23.112;2023-03-21T10:06:16;27.52;;;9.02;;
4889;SDS011;2459;42.268;23.112;2023-03-21T10:08:44;29.73;;;8.18;;
4889;SDS011;2459;42.268;23.112;2023-03-21T10:11:12;32.50;;;9.20;;
4889;SDS011;2459;42.268;23.112;2023-03-21T10:13:41;25.98;;;7.88;;
4889;SDS011;2459;42.268;23.112;2023-03-21T10:16:11;27.40;;;7.65;;
4889;SDS011;2459;42.268;23.112;2023-03-21T10:18:38;32.28;;;8.82;;
4889;SDS011;2459;42.268;23.112;2023-03-21T10:21:09;31.27;;;8.60;;
4889;SDS011;2459;42.268;23.112;2023-03-21T10:23:40;21.20;;;7.88;;
4889;SDS011;2459;42.268;23.112;2023-03-21T10:26:07;17.57;;;6.83;;
4889;SDS011;2459;42.268;23.112;2023-03-21T10:28:34;14.98;;;6.15;;
4889;SDS011;2459;42.268;23.112;2023-03-21T10:31:02;16.30;;;6.70;;
4889;SDS011;2459;42.268;23.112;2023-03-21T10:33:31;23.30;;;8.53;;
4889;SDS011;2459;42.268;23.112;2023-03-21T10:35:59;20.02;;;7.88;;
4889;SDS011;2459;42.268;23.112;2023-03-21T10:38:28;24.20;;;8.73;;
4889;SDS011;2459;42.268;23.112;2023-03-21T10:40:55;26.83;;;7.97;;
4889;SDS011;2459;42.268;23.112;2023-03-21T10:43:32;20.90;;;6.93;;
4889;SDS011;2459;42.268;23.112;2023-03-21T10:46:04;18.93;;;6.43;;
4889;SDS011;2459;42.268;23.112;2023-03-21T10:48:33;26.93;;;11.90;;
4889;SDS011;2459;42.268;23.112;2023-03-21T10:51:00;30.10;;;6.97;;
4889;SDS011;2459;42.268;23.112;2023-03-21T10:53:30;17.73;;;6.13;;
4889;SDS011;2459;42.268;23.112;2023-03-21T10:55:58;14.43;;;6.77;;
4889;SDS011;2459;42.268;23.112;2023-03-21T10:58:25;13.63;;;7.57;;
4889;SDS011;2459;42.268;23.112;2023-03-21T11:00:53;14.87;;;6.80;;
4889;SDS011;2459;42.268;23.112;2023-03-21T11:03:22;25.60;;;7.27;;
4889;SDS011;2459;42.268;23.112;2023-03-21T11:05:52;27.23;;;7.30;;
4889;SDS011;2459;42.268;23.112;2023-03-21T11:08:18;13.93;;;3.97;;
4889;SDS011;2459;42.268;23.112;2023-03-21T11:10:54;9.23;;;4.77;;
4889;SDS011;2459;42.268;23.112;2023-03-21T11:13:25;28.77;;;6.83;;
4889;SDS011;2459;42.268;23.112;2023-03-21T11:15:53;12.50;;;4.80;;
4889;SDS011;2459;42.268;23.112;2023-03-21T11:18:20;9.90;;;5.37;;
4889;SDS011;2459;42.268;23.112;2023-03-21T11:20:48;10.33;;;4.90;;
4889;SDS011;2459;42.268;23.112;2023-03-21T11:23:15;13.43;;;4.37;;
4889;SDS011;2459;42.268;23.112;2023-03-21T11:25:42;14.50;;;5.43;;
4889;SDS011;2459;42.268;23.112;2023-03-21T11:28:13;10.63;;;5.87;;
4889;SDS011;2459;42.268;23.112;2023-03-21T11:30:47;24.17;;;6.27;;
4889;SDS011;2459;42.268;23.112;2023-03-21T11:33:14;21.67;;;8.10;;
4889;SDS011;2459;42.268;23.112;2023-03-21T11:35:43;17.13;;;5.93;;
4889;SDS011;2459;42.268;23.112;2023-03-21T11:38:23;29.83;;;8.90;;
4889;SDS011;2459;42.268;23.112;2023-03-21T11:40:51;16.63;;;6.63;;
4889;SDS011;2459;42.268;23.112;2023-03-21T11:43:27;16.80;;;6.30;;
4889;SDS011;2459;42.268;23.112;2023-03-21T11:45:55;19.50;;;6.47;;
4889;SDS011;2459;42.268;23.112;2023-03-21T11:48:22;16.23;;;5.37;;
4889;SDS011;2459;42.268;23.112;2023-03-21T11:50:49;16.80;;;8.27;;
4889;SDS011;2459;42.268;23.112;2023-03-21T11:53:21;13.87;;;5.93;;
4889;SDS011;2459;42.268;23.112;2023-03-21T11:55:55;26.43;;;5.50;;
4889;SDS011;2459;42.268;23.112;2023-03-21T11:58:38;15.43;;;6.77;;
4889;SDS011;2459;42.268;23.112;2023-03-21T12:01:11;17.93;;;6.70;;
4889;SDS011;2459;42.268;23.112;2023-03-21T12:03:47;14.23;;;6.27;;
4889;SDS011;2459;42.268;23.112;2023-03-21T12:06:18;20.20;;;6.60;;
4889;SDS011;2459;42.268;23.112;2023-03-21T12:08:49;17.33;;;6.47;;
4889;SDS011;2459;42.268;23.112;2023-03-21T12:11:19;19.10;;;6.53;;
4889;SDS011;2459;42.268;23.112;2023-03-21T12:13:56;19.43;;;6.40;;
4889;SDS011;2459;42.268;23.112;2023-03-21T12:16:28;20.47;;;7.20;;
4889;SDS011;2459;42.268;23.112;2023-03-21T12:19:01;15.93;;;7.23;;
4889;SDS011;2459;42.268;23.112;2023-03-21T12:21:33;22.10;;;6.67;;
4889;SDS011;2459;42.268;23.112;2023-03-21T12:24:05;12.60;;;6.07;;
4889;SDS011;2459;42.268;23.112;2023-03-21T12:26:34;13.37;;;5.87;;
4889;SDS011;2459;42.268;23.112;2023-03-21T12:29:25;19.50;;;6.80;;
4889;SDS011;2459;42.268;23.112;2023-03-21T12:32:00;20.10;;;7.63;;
4889;SDS011;2459;42.268;23.112;2023-03-21T12:34:42;17.00;;;5.77;;
4889;SDS011;2459;42.268;23.112;2023-03-21T12:37:14;32.23;;;6.20;;
4889;SDS011;2459;42.268;23.112;2023-03-21T12:39:42;15.40;;;6.00;;
4889;SDS011;2459;42.268;23.112;2023-03-21T12:45:01;18.33;;;5.30;;
4889;SDS011;2459;42.268;23.112;2023-03-21T12:47:29;11.73;;;3.83;;
4889;SDS011;2459;42.268;23.112;2023-03-21T12:49:59;11.83;;;5.17;;
4889;SDS011;2459;42.268;23.112;2023-03-21T12:52:28;12.17;;;4.97;;
4889;SDS011;2459;42.268;23.112;2023-03-21T12:54:56;13.67;;;4.50;;
4889;SDS011;2459;42.268;23.112;2023-03-21T12:57:26;6.90;;;4.37;;
4889;SDS011;2459;42.268;23.112;2023-03-21T12:59:54;9.53;;;5.03;;
4889;SDS011;2459;42.268;23.112;2023-03-21T13:02:27;16.53;;;7.57;;
4889;SDS011;2459;42.268;23.112;2023-03-21T13:04:56;27.07;;;10.70;;
4889;SDS011;2459;42.268;23.112;2023-03-21T13:07:24;17.73;;;4.50;;
4889;SDS011;2459;42.268;23.112;2023-03-21T13:09:53;11.10;;;4.60;;
4889;SDS011;2459;42.268;23.112;2023-03-21T13:12:23;7.40;;;4.73;;
4889;SDS011;2459;42.268;23.112;2023-03-21T13:14:54;17.33;;;5.20;;
4889;SDS011;2459;42.268;23.112;2023-03-21T13:17:27;10.50;;;5.00;;
4889;SDS011;2459;42.268;23.112;2023-03-21T13:19:57;11.33;;;4.60;;
4889;SDS011;2459;42.268;23.112;2023-03-21T13:22:29;9.97;;;4.63;;
4889;SDS011;2459;42.268;23.112;2023-03-21T13:24:56;10.17;;;4.47;;
4889;SDS011;2459;42.268;23.112;2023-03-21T13:27:25;7.43;;;4.50;;
4889;SDS011;2459;42.268;23.112;2023-03-21T13:29:57;9.53;;;4.33;;
4889;SDS011;2459;42.268;23.112;2023-03-21T13:32:27;11.93;;;4.40;;
4889;SDS011;2459;42.268;23.112;2023-03-21T13:34:54;14.80;;;5.50;;
4889;SDS011;2459;42.268;23.112;2023-03-21T13:37:21;10.47;;;5.37;;
4889;SDS011;2459;42.268;23.112;2023-03-21T13:39:48;19.23;;;5.50;;
4889;SDS011;2459;42.268;23.112;2023-03-21T13:42:17;13.00;;;4.93;;
4889;SDS011;2459;42.268;23.112;2023-03-21T13:44:47;10.27;;;4.77;;
4889;SDS011;2459;42.268;23.112;2023-03-21T13:47:21;6.40;;;4.50;;
4889;SDS011;2459;42.268;23.112;2023-03-21T13:52:31;16.03;;;6.30;;
4889;SDS011;2459;42.268;23.112;2023-03-21T13:54:58;13.07;;;6.63;;
4889;SDS011;2459;42.268;23.112;2023-03-21T13:57:37;17.20;;;6.97;;
4889;SDS011;2459;42.268;23.112;2023-03-21T14:00:15;22.13;;;7.47;;
4889;SDS011;2459;42.268;23.112;2023-03-21T14:02:49;30.37;;;8.03;;
4889;SDS011;2459;42.268;23.112;2023-03-21T14:05:19;19.07;;;5.50;;
4889;SDS011;2459;42.268;23.112;2023-03-21T14:07:47;17.40;;;7.87;;
4889;SDS011;2459;42.268;23.112;2023-03-21T14:10:16;39.13;;;11.80;;
4889;SDS011;2459;42.268;23.112;2023-03-21T14:12:44;38.17;;;7.50;;
4889;SDS011;2459;42.268;23.112;2023-03-21T14:15:13;37.17;;;7.30;;
4889;SDS011;2459;42.268;23.112;2023-03-21T14:17:48;15.87;;;4.87;;
4889;SDS011;2459;42.268;23.112;2023-03-21T14:20:17;14.80;;;5.60;;
4889;SDS011;2459;42.268;23.112;2023-03-21T14:22:46;21.87;;;6.00;;
4889;SDS011;2459;42.268;23.112;2023-03-21T14:25:14;26.07;;;7.37;;
4889;SDS011;2459;42.268;23.112;2023-03-21T14:27:41;15.80;;;7.17;;
4889;SDS011;2459;42.268;23.112;2023-03-21T14:30:10;15.00;;;8.00;;
4889;SDS011;2459;42.268;23.112;2023-03-21T14:32:37;30.23;;;10.03;;
4889;SDS011;2459;42.268;23.112;2023-03-21T14:35:08;31.50;;;9.90;;
4889;SDS011;2459;42.268;23.112;2023-03-21T14:37:37;21.97;;;10.03;;
4889;SDS011;2459;42.268;23.112;2023-03-21T14:40:06;11.07;;;5.47;;
4889;SDS011;2459;42.268;23.112;2023-03-21T14:42:34;16.07;;;7.30;;
4889;SDS011;2459;42.268;23.112;2023-03-21T14:45:09;14.43;;;9.20;;
4889;SDS011;2459;42.268;23.112;2023-03-21T14:47:36;19.30;;;8.83;;
4889;SDS011;2459;42.268;23.112;2023-03-21T14:50:05;17.23;;;9.47;;
4889;SDS011;2459;42.268;23.112;2023-03-21T14:52:32;31.50;;;10.47;;
4889;SDS011;2459;42.268;23.112;2023-03-21T14:55:00;20.57;;;10.47;;
4889;SDS011;2459;42.268;23.112;2023-03-21T14:57:29;16.13;;;8.23;;
4889;SDS011;2459;42.268;23.112;2023-03-21T14:59:57;18.93;;;9.00;;
4889;SDS011;2459;42.268;23.112;2023-03-21T15:02:25;16.70;;;8.77;;
4889;SDS011;2459;42.268;23.112;2023-03-21T15:04:54;49.50;;;18.60;;
4889;SDS011;2459;42.268;23.112;2023-03-21T15:07:25;14.80;;;8.27;;